createdAt,value
2023-01-19T00:00:55.497Z,96291.84
2023-01-19T00:03:22.584Z,96292.63
2023-01-19T00:05:49.709Z,96291.91
2023-01-19T00:08:17.656Z,96288.66
2023-01-19T00:10:46.034Z,96292.25
2023-01-19T00:13:14.275Z,96279.69
2023-01-19T00:15:41.414Z,96279.53
2023-01-19T00:18:10.624Z,96273.28
2023-01-19T00:20:38.083Z,96291.09
2023-01-19T00:23:05.121Z,96292.91
2023-01-19T00:25:32.191Z,96291.28
2023-01-19T00:28:01.546Z,96287.63
2023-01-19T00:30:28.698Z,96299.69
2023-01-19T00:32:55.965Z,96293.25
2023-01-19T00:35:22.925Z,96308.13
2023-01-19T00:37:52.745Z,96304.97
2023-01-19T00:40:19.818Z,96308.47
2023-01-19T00:42:48.524Z,96312.78
2023-01-19T00:45:19.451Z,96319.88
2023-01-19T00:47:47.895Z,96314.41
2023-01-19T00:50:16.864Z,96318.63
2023-01-19T00:52:45.211Z,96313.16
2023-01-19T00:55:14.597Z,96307.25
2023-01-19T00:57:42.409Z,96319.78
2023-01-19T01:00:13.650Z,96299.09
2023-01-19T01:02:42.349Z,96310.03
2023-01-19T01:05:10.272Z,96311.69
2023-01-19T01:07:45.480Z,96311.19
2023-01-19T01:10:17.768Z,96291.53
2023-01-19T01:12:54.943Z,96298.38
2023-01-19T01:15:33.016Z,96307.63
2023-01-19T01:17:59.691Z,96316.56
2023-01-19T01:20:28.697Z,96306.00
2023-01-19T01:22:57.010Z,96307.97
2023-01-19T01:25:25.433Z,96314.19
2023-01-19T01:27:53.150Z,96329.69
2023-01-19T01:30:20.978Z,96317.97
2023-01-19T01:32:47.651Z,96307.06
2023-01-19T01:35:14.805Z,96308.25
2023-01-19T01:37:42.934Z,96315.03
2023-01-19T01:40:13.779Z,96307.63
2023-01-19T01:42:40.764Z,96307.28
2023-01-19T01:45:16.777Z,96319.81
2023-01-19T01:47:47.459Z,96323.47
2023-01-19T01:50:27.641Z,96313.59
2023-01-19T01:53:06.910Z,96315.72
2023-01-19T01:55:39.227Z,96312.91
2023-01-19T01:58:08.995Z,96304.00
2023-01-19T02:00:55.047Z,96305.91
2023-01-19T02:03:24.307Z,96308.28
2023-01-19T02:05:52.103Z,96308.09
2023-01-19T02:09:01.106Z,96310.44
2023-01-19T02:11:48.780Z,96306.34
2023-01-19T02:14:15.519Z,96306.91
2023-01-19T02:16:42.725Z,96304.22
2023-01-19T02:19:16.816Z,96316.78
2023-01-19T02:21:55.069Z,96323.34
2023-01-19T02:24:22.179Z,96309.69
2023-01-19T02:26:49.573Z,96309.34
2023-01-19T02:29:23.232Z,96312.53
2023-01-19T02:31:50.653Z,96316.84
2023-01-19T02:34:21.048Z,96319.00
2023-01-19T02:37:15.343Z,96315.88
2023-01-19T02:39:45.309Z,96307.63
2023-01-19T02:42:17.638Z,96309.94
2023-01-19T02:44:52.047Z,96296.75
2023-01-19T02:47:19.831Z,96307.13
2023-01-19T02:49:55.909Z,96320.94
2023-01-19T02:52:22.875Z,96323.75
2023-01-19T02:54:55.404Z,96319.41
2023-01-19T02:57:24.652Z,96320.78
2023-01-19T03:00:12.387Z,96317.66
2023-01-19T03:02:51.049Z,96326.47
2023-01-19T03:05:34.385Z,96320.38
2023-01-19T03:08:34.275Z,96331.78
2023-01-19T03:11:04.568Z,96321.28
2023-01-19T03:13:52.922Z,96304.34
2023-01-19T03:16:25.705Z,96313.16
2023-01-19T03:19:02.567Z,96308.09
2023-01-19T03:21:30.916Z,96299.44
2023-01-19T03:24:02.985Z,96296.47
2023-01-19T03:26:35.275Z,96285.13
2023-01-19T03:29:04.556Z,96296.78
2023-01-19T03:31:33.281Z,96288.91
2023-01-19T03:34:08.103Z,96278.00
2023-01-19T03:36:45.124Z,96277.19
2023-01-19T03:39:15.568Z,96274.41
2023-01-19T03:41:44.790Z,96278.69
2023-01-19T03:44:12.236Z,96271.47
2023-01-19T03:46:40.475Z,96276.69
2023-01-19T03:49:08.592Z,96278.34
2023-01-19T03:51:37.711Z,96263.34
2023-01-19T03:54:05.866Z,96267.81
2023-01-19T03:56:33.868Z,96280.69
2023-01-19T03:59:00.681Z,96269.47
2023-01-19T04:01:27.847Z,96277.13
2023-01-19T04:03:54.973Z,96285.94
2023-01-19T04:06:22.061Z,96276.16
2023-01-19T04:08:50.547Z,96286.56
2023-01-19T04:11:17.758Z,96299.16
2023-01-19T04:13:47.969Z,96301.09
2023-01-19T04:16:20.168Z,96282.47
2023-01-19T04:18:47.557Z,96290.72
2023-01-19T04:21:14.944Z,96318.84
2023-01-19T04:23:42.347Z,96285.88
2023-01-19T04:26:09.571Z,96290.16
2023-01-19T04:28:39.634Z,96294.06
2023-01-19T04:31:07.609Z,96283.84
2023-01-19T04:33:34.448Z,96282.88
2023-01-19T04:36:01.959Z,96287.13
2023-01-19T04:38:28.742Z,96310.16
2023-01-19T04:40:55.927Z,96301.25
2023-01-19T04:43:24.061Z,96309.84
2023-01-19T04:45:53.998Z,96306.53
2023-01-19T04:48:20.900Z,96314.47
2023-01-19T04:50:47.880Z,96322.75
2023-01-19T04:53:16.404Z,96337.91
2023-01-19T04:55:43.579Z,96345.44
2023-01-19T04:58:10.412Z,96326.00
2023-01-19T05:00:37.162Z,96340.16
2023-01-19T05:03:05.341Z,96342.16
2023-01-19T05:05:33.734Z,96352.34
2023-01-19T05:08:00.828Z,96337.47
2023-01-19T05:10:27.613Z,96344.75
2023-01-19T05:12:54.692Z,96357.25
2023-01-19T05:15:22.096Z,96366.84
2023-01-19T05:17:49.082Z,96370.13
2023-01-19T05:20:16.481Z,96370.78
2023-01-19T05:22:50.933Z,96382.53
2023-01-19T05:25:18.821Z,96374.13
2023-01-19T05:27:45.908Z,96383.69
2023-01-19T05:30:13.670Z,96382.38
2023-01-19T05:32:40.419Z,96375.13
2023-01-19T05:35:07.977Z,96387.97
2023-01-19T05:37:34.976Z,96388.31
2023-01-19T05:40:01.855Z,96396.19
2023-01-19T05:42:28.495Z,96379.56
2023-01-19T05:44:55.688Z,96382.34
2023-01-19T05:47:22.390Z,96400.50
2023-01-19T05:49:49.128Z,96401.63
2023-01-19T05:52:16.357Z,96388.78
2023-01-19T05:54:43.040Z,96397.53
2023-01-19T05:57:10.997Z,96388.13
2023-01-19T05:59:37.988Z,96390.91
2023-01-19T06:02:04.662Z,96384.81
2023-01-19T06:04:31.409Z,96383.50
2023-01-19T06:06:58.159Z,96380.72
2023-01-19T06:09:25.004Z,96397.50
2023-01-19T06:11:54.237Z,96388.44
2023-01-19T06:14:21.235Z,96389.25
2023-01-19T06:16:47.981Z,96402.09
2023-01-19T06:19:15.094Z,96387.28
2023-01-19T06:21:44.733Z,96380.69
2023-01-19T06:24:13.694Z,96385.66
2023-01-19T06:26:40.679Z,96391.22
2023-01-19T06:29:07.364Z,96397.00
2023-01-19T06:31:34.034Z,96399.06
2023-01-19T06:34:01.346Z,96403.16
2023-01-19T06:36:28.215Z,96413.72
2023-01-19T06:38:54.976Z,96422.00
2023-01-19T06:41:22.090Z,96417.50
2023-01-19T06:43:49.278Z,96423.28
2023-01-19T06:46:16.399Z,96418.19
2023-01-19T06:48:43.365Z,96418.63
2023-01-19T06:51:13.322Z,96411.34
2023-01-19T06:53:40.362Z,96414.66
2023-01-19T06:56:08.229Z,96417.81
2023-01-19T06:58:35.361Z,96403.09
2023-01-19T07:01:04.307Z,96395.97
2023-01-19T07:03:32.256Z,96411.34
2023-01-19T07:06:02.351Z,96414.50
2023-01-19T07:08:30.509Z,96419.63
2023-01-19T07:11:24.856Z,96416.84
2023-01-19T07:13:55.671Z,96425.88
2023-01-19T07:16:22.503Z,96427.19
2023-01-19T07:18:50.100Z,96424.44
2023-01-19T07:21:17.317Z,96437.25
2023-01-19T07:23:44.083Z,96429.84
2023-01-19T07:26:11.201Z,96423.09
2023-01-19T07:28:38.122Z,96428.63
2023-01-19T07:31:05.255Z,96427.81
2023-01-19T07:33:32.520Z,96425.31
2023-01-19T07:35:59.451Z,96413.13
2023-01-19T07:38:26.235Z,96416.75
2023-01-19T07:41:04.636Z,96406.53
2023-01-19T07:43:32.047Z,96411.63
2023-01-19T07:46:00.870Z,96402.22
2023-01-19T07:48:28.127Z,96406.00
2023-01-19T07:51:11.074Z,96407.81
2023-01-19T07:53:40.295Z,96390.63
2023-01-19T07:56:08.011Z,96398.50
2023-01-19T07:58:35.239Z,96400.50
2023-01-19T08:01:06.871Z,96391.66
2023-01-19T08:03:33.723Z,96385.59
2023-01-19T08:06:00.926Z,96393.59
2023-01-19T08:08:29.751Z,96386.94
2023-01-19T08:10:58.163Z,96399.66
2023-01-19T08:13:25.745Z,96414.63
2023-01-19T08:15:54.252Z,96389.31
2023-01-19T08:18:21.330Z,96398.59
2023-01-19T08:20:48.354Z,96399.69
2023-01-19T08:23:15.418Z,96402.47
2023-01-19T08:25:45.175Z,96404.09
2023-01-19T08:28:17.097Z,96408.44
2023-01-19T08:30:45.150Z,96412.47
2023-01-19T08:33:13.891Z,96419.69
2023-01-19T08:35:42.918Z,96417.91
2023-01-19T08:38:10.826Z,96422.56
2023-01-19T08:40:38.810Z,96437.06
2023-01-19T08:43:13.282Z,96430.38
2023-01-19T08:45:42.557Z,96429.09
2023-01-19T08:48:10.539Z,96429.25
2023-01-19T08:50:38.032Z,96432.28
2023-01-19T08:53:07.305Z,96418.53
2023-01-19T08:55:36.274Z,96422.25
2023-01-19T08:58:04.679Z,96416.97
2023-01-19T09:00:34.358Z,96425.56
2023-01-19T09:03:05.414Z,96415.69
2023-01-19T09:05:40.441Z,96401.94
2023-01-19T09:08:09.516Z,96402.03
2023-01-19T09:10:38.137Z,96412.59
2023-01-19T09:13:11.148Z,96398.94
2023-01-19T09:15:39.729Z,96406.06
2023-01-19T09:18:10.400Z,96404.63
2023-01-19T09:20:39.310Z,96406.25
2023-01-19T09:23:06.504Z,96406.16
2023-01-19T09:25:33.374Z,96405.59
2023-01-19T09:28:01.306Z,96409.94
2023-01-19T09:30:28.807Z,96410.84
2023-01-19T09:32:55.676Z,96402.78
2023-01-19T09:35:22.419Z,96399.13
2023-01-19T09:37:49.195Z,96380.66
2023-01-19T09:40:20.947Z,96382.31
2023-01-19T09:43:11.998Z,96382.38
2023-01-19T09:46:01.781Z,96379.38
2023-01-19T09:48:50.059Z,96387.19
2023-01-19T09:51:28.261Z,96365.84
2023-01-19T09:54:16.761Z,96377.69
2023-01-19T09:56:45.407Z,96387.09
2023-01-19T09:59:22.528Z,96379.91
2023-01-19T10:02:18.139Z,96379.84
2023-01-19T10:05:04.942Z,96384.00
2023-01-19T10:08:16.607Z,96366.59
2023-01-19T10:10:49.924Z,96363.22
2023-01-19T10:13:30.742Z,96367.81
2023-01-19T10:16:03.727Z,96364.75
2023-01-19T10:18:51.902Z,96367.38
2023-01-19T10:21:22.857Z,96350.81
2023-01-19T10:23:52.331Z,96350.06
2023-01-19T10:26:34.096Z,96370.03
2023-01-19T10:29:19.938Z,96356.78
2023-01-19T10:31:48.346Z,96362.84
2023-01-19T10:34:23.022Z,96365.09
2023-01-19T10:37:02.844Z,96351.19
2023-01-19T10:39:29.995Z,96351.63
2023-01-19T10:42:01.115Z,96346.16
2023-01-19T10:44:35.143Z,96346.72
2023-01-19T10:47:02.502Z,96353.38
2023-01-19T10:49:42.876Z,96345.63
2023-01-19T10:52:32.488Z,96350.56
2023-01-19T10:55:01.100Z,96339.75
2023-01-19T10:57:43.528Z,96331.00
2023-01-19T11:00:42.271Z,96327.19
2023-01-19T11:03:21.211Z,96337.81
2023-01-19T11:05:51.133Z,96340.97
2023-01-19T11:08:30.522Z,96330.13
2023-01-19T11:11:08.723Z,96334.19
2023-01-19T11:13:36.890Z,96323.19
2023-01-19T11:16:28.735Z,96317.03
2023-01-19T11:18:57.335Z,96334.81
2023-01-19T11:21:27.103Z,96324.97
2023-01-19T11:23:57.570Z,96333.13
2023-01-19T11:26:39.583Z,96339.69
2023-01-19T11:29:15.614Z,96326.41
2023-01-19T11:31:42.348Z,96331.47
2023-01-19T11:34:41.734Z,96338.78
2023-01-19T11:37:30.240Z,96307.09
2023-01-19T11:40:00.193Z,96323.03
2023-01-19T11:42:30.369Z,96326.91
2023-01-19T11:45:12.045Z,96341.28
2023-01-19T11:47:43.315Z,96319.00
2023-01-19T11:50:34.584Z,96322.16
2023-01-19T11:53:04.051Z,96312.31
2023-01-19T11:55:44.214Z,96320.28
2023-01-19T11:58:17.245Z,96315.66
2023-01-19T12:00:48.986Z,96306.69
2023-01-19T12:03:24.152Z,96316.72
2023-01-19T12:06:07.018Z,96307.13
2023-01-19T12:08:39.984Z,96307.53
2023-01-19T12:11:11.235Z,96296.28
2023-01-19T12:13:40.716Z,96295.66
2023-01-19T12:16:22.085Z,96298.56
2023-01-19T12:18:55.672Z,96300.59
2023-01-19T12:21:22.877Z,96305.06
2023-01-19T12:24:13.223Z,96285.88
2023-01-19T12:26:54.892Z,96299.31
2023-01-19T12:29:25.890Z,96302.16
2023-01-19T12:32:14.411Z,96278.19
2023-01-19T12:34:43.855Z,96283.69
2023-01-19T12:37:32.384Z,96259.78
2023-01-19T12:40:25.823Z,96258.34
2023-01-19T12:42:55.565Z,96266.97
2023-01-19T12:45:32.217Z,96262.00
2023-01-19T12:47:59.953Z,96264.88
2023-01-19T12:50:29.445Z,96256.72
2023-01-19T12:53:02.149Z,96260.34
2023-01-19T12:55:33.295Z,96253.84
2023-01-19T12:58:21.076Z,96268.56
2023-01-19T13:00:50.196Z,96255.03
2023-01-19T13:03:19.926Z,96251.78
2023-01-19T13:05:49.411Z,96259.06
2023-01-19T13:08:18.140Z,96236.47
2023-01-19T13:10:54.223Z,96243.56
2023-01-19T13:13:25.152Z,96259.50
2023-01-19T13:15:55.902Z,96244.81
2023-01-19T13:18:34.124Z,96241.09
2023-01-19T13:21:05.384Z,96251.28
2023-01-19T13:23:47.376Z,96249.06
2023-01-19T13:26:16.972Z,96227.13
2023-01-19T13:28:46.325Z,96241.19
2023-01-19T13:31:14.063Z,96227.13
2023-01-19T13:33:46.380Z,96245.06
2023-01-19T13:36:23.766Z,96240.97
2023-01-19T13:38:51.942Z,96238.81
2023-01-19T13:41:25.097Z,96232.31
2023-01-19T13:44:29.979Z,96237.22
2023-01-19T13:46:59.618Z,96226.56
2023-01-19T13:49:35.511Z,96210.78
2023-01-19T13:52:19.445Z,96207.00
2023-01-19T13:55:02.517Z,96221.78
2023-01-19T13:57:39.554Z,96235.66
2023-01-19T14:00:12.678Z,96228.31
2023-01-19T14:02:55.234Z,96245.66
2023-01-19T14:05:22.264Z,96238.03
2023-01-19T14:07:59.176Z,96231.50
2023-01-19T14:10:26.002Z,96223.34
2023-01-19T14:13:04.729Z,96222.50
2023-01-19T14:15:35.590Z,96224.53
2023-01-19T14:18:17.648Z,96224.56
2023-01-19T14:21:09.119Z,96228.59
2023-01-19T14:23:51.043Z,96221.63
2023-01-19T14:26:54.044Z,96230.13
2023-01-19T14:29:32.766Z,96237.47
2023-01-19T14:32:15.197Z,96220.31
2023-01-19T14:34:43.226Z,96235.31
2023-01-19T14:37:29.850Z,96253.28
2023-01-19T14:39:56.497Z,96235.44
2023-01-19T14:42:30.995Z,96243.72
2023-01-19T14:45:02.284Z,96245.88
2023-01-19T14:47:33.156Z,96239.31
2023-01-19T14:50:07.521Z,96235.63
2023-01-19T14:52:42.123Z,96227.69
2023-01-19T14:55:21.043Z,96243.13
2023-01-19T14:57:48.505Z,96229.16
2023-01-19T15:00:20.439Z,96246.44
2023-01-19T15:02:47.934Z,96233.94
2023-01-19T15:05:14.779Z,96237.16
2023-01-19T15:07:46.787Z,96239.53
2023-01-19T15:10:19.282Z,96249.78
2023-01-19T15:12:46.204Z,96261.56
2023-01-19T15:15:15.720Z,96271.44
2023-01-19T15:17:43.021Z,96266.75
2023-01-19T15:20:21.757Z,96267.13
2023-01-19T15:22:48.929Z,96279.66
2023-01-19T15:25:21.893Z,96294.06
2023-01-19T15:27:49.569Z,96290.16
2023-01-19T15:30:23.672Z,96290.16
2023-01-19T15:32:50.732Z,96303.22
2023-01-19T15:35:20.106Z,96283.50
2023-01-19T15:37:47.925Z,96305.50
2023-01-19T15:40:15.009Z,96304.22
2023-01-19T15:42:42.773Z,96303.31
2023-01-19T15:45:48.612Z,96267.38
2023-01-19T15:48:15.517Z,96300.41
2023-01-19T15:50:45.074Z,96295.84
2023-01-19T15:53:17.920Z,96292.94
2023-01-19T15:55:49.835Z,96305.50
2023-01-19T15:58:17.576Z,96317.81
2023-01-19T16:00:44.772Z,96320.09
2023-01-19T16:03:12.045Z,96327.41
2023-01-19T16:05:43.604Z,96333.44
2023-01-19T16:08:12.102Z,96340.09
2023-01-19T16:10:39.607Z,96334.88
2023-01-19T16:13:06.555Z,96342.88
2023-01-19T16:15:36.557Z,96339.03
2023-01-19T16:18:04.295Z,96330.06
2023-01-19T16:20:31.115Z,96343.03
2023-01-19T16:23:06.257Z,96342.00
2023-01-19T16:25:41.247Z,96332.59
2023-01-19T16:28:08.462Z,96345.34
2023-01-19T16:30:35.494Z,96331.50
2023-01-19T16:33:02.342Z,96335.16
2023-01-19T16:35:29.357Z,96352.00
2023-01-19T16:37:56.077Z,96346.41
2023-01-19T16:40:22.835Z,96343.09
2023-01-19T16:42:49.887Z,96356.84
2023-01-19T16:45:16.935Z,96357.19
2023-01-19T16:47:45.498Z,96349.47
2023-01-19T16:50:12.612Z,96352.66
2023-01-19T16:52:39.641Z,96356.03
2023-01-19T16:55:09.586Z,96354.56
2023-01-19T16:57:39.905Z,96366.31
2023-01-19T17:00:09.685Z,96353.00
2023-01-19T17:02:36.724Z,96344.53
2023-01-19T17:05:03.944Z,96357.03
2023-01-19T17:07:33.808Z,96350.50
2023-01-19T17:10:00.950Z,96367.66
2023-01-19T17:12:27.658Z,96351.50
2023-01-19T17:14:54.668Z,96359.78
2023-01-19T17:17:21.890Z,96364.50
2023-01-19T17:19:48.819Z,96365.59
2023-01-19T17:22:15.750Z,96373.88
2023-01-19T17:24:44.010Z,96376.94
2023-01-19T17:27:11.578Z,96363.50
2023-01-19T17:29:38.371Z,96384.44
2023-01-19T17:32:05.481Z,96393.69
2023-01-19T17:34:32.462Z,96392.44
2023-01-19T17:37:03.318Z,96407.25
2023-01-19T17:39:30.992Z,96413.56
2023-01-19T17:41:58.537Z,96408.28
2023-01-19T17:44:25.233Z,96402.22
2023-01-19T17:46:52.126Z,96411.31
2023-01-19T17:49:19.186Z,96403.25
2023-01-19T17:51:46.845Z,96400.13
2023-01-19T17:54:14.532Z,96397.34
2023-01-19T17:56:41.956Z,96375.41
2023-01-19T17:59:08.982Z,96349.28
2023-01-19T18:01:40.773Z,96350.28
2023-01-19T18:04:09.387Z,96343.72
2023-01-19T18:06:37.350Z,96334.78
2023-01-19T18:09:05.248Z,96349.47
2023-01-19T18:11:32.701Z,96329.78
2023-01-19T18:14:03.012Z,96341.69
2023-01-19T18:16:30.439Z,96334.09
2023-01-19T18:18:57.415Z,96338.91
2023-01-19T18:21:27.460Z,96337.25
2023-01-19T18:24:02.504Z,96353.91
2023-01-19T18:26:31.513Z,96350.44
2023-01-19T18:28:58.878Z,96349.47
2023-01-19T18:31:26.933Z,96348.00
2023-01-19T18:33:54.317Z,96355.91
2023-01-19T18:36:21.787Z,96363.53
2023-01-19T18:38:49.739Z,96375.75
2023-01-19T18:41:18.117Z,96384.31
2023-01-19T18:43:45.460Z,96398.50
2023-01-19T18:46:18.028Z,96389.00
2023-01-19T18:48:45.179Z,96398.38
2023-01-19T18:51:14.731Z,96411.41
2023-01-19T18:53:42.960Z,96403.19
2023-01-19T18:56:12.862Z,96414.88
2023-01-19T18:58:40.542Z,96405.47
2023-01-19T19:01:24.600Z,96407.44
2023-01-19T19:03:52.844Z,96402.97
2023-01-19T19:06:21.031Z,96395.25
2023-01-19T19:08:52.087Z,96400.25
2023-01-19T19:11:21.382Z,96401.06
2023-01-19T19:14:00.330Z,96391.97
2023-01-19T19:16:28.853Z,96390.63
2023-01-19T19:18:56.343Z,96398.38
2023-01-19T19:21:25.582Z,96393.75
2023-01-19T19:23:54.648Z,96386.91
2023-01-19T19:26:22.058Z,96407.16
2023-01-19T19:28:52.144Z,96416.22
2023-01-19T19:31:21.202Z,96434.47
2023-01-19T19:33:51.728Z,96447.69
2023-01-19T19:36:23.796Z,96467.16
2023-01-19T19:38:50.642Z,96455.78
2023-01-19T19:41:25.032Z,96455.44
2023-01-19T19:43:51.918Z,96456.75
2023-01-19T19:46:20.376Z,96462.03
2023-01-19T19:48:48.887Z,96477.41
2023-01-19T19:51:25.797Z,96466.34
2023-01-19T19:53:59.170Z,96457.94
2023-01-19T19:56:28.443Z,96453.69
2023-01-19T19:58:56.802Z,96456.00
2023-01-19T20:01:32.548Z,96442.75
2023-01-19T20:04:06.938Z,96453.97
2023-01-19T20:06:39.012Z,96445.22
2023-01-19T20:09:08.120Z,96446.72
2023-01-19T20:11:35.701Z,96453.97
2023-01-19T20:14:10.219Z,96451.66
2023-01-19T20:16:37.513Z,96443.44
2023-01-19T20:19:04.986Z,96442.75
2023-01-19T20:21:39.403Z,96439.81
2023-01-19T20:24:10.401Z,96444.44
2023-01-19T20:26:41.143Z,96440.97
2023-01-19T20:29:10.404Z,96427.25
2023-01-19T20:31:40.737Z,96421.38
2023-01-19T20:34:09.381Z,96437.22
2023-01-19T20:36:36.896Z,96427.47
2023-01-19T20:39:09.609Z,96428.59
2023-01-19T20:41:43.411Z,96435.53
2023-01-19T20:44:12.154Z,96425.66
2023-01-19T20:46:39.715Z,96414.44
2023-01-19T20:49:07.455Z,96413.50
2023-01-19T20:51:36.285Z,96413.13
2023-01-19T20:54:04.114Z,96423.19
2023-01-19T20:56:30.977Z,96433.91
2023-01-19T20:58:59.418Z,96428.75
2023-01-19T21:01:26.334Z,96435.53
2023-01-19T21:03:53.750Z,96434.22
2023-01-19T21:06:21.762Z,96448.41
2023-01-19T21:08:51.908Z,96430.88
2023-01-19T21:11:20.993Z,96429.44
2023-01-19T21:13:49.070Z,96424.63
2023-01-19T21:16:15.888Z,96417.53
2023-01-19T21:18:43.046Z,96407.78
2023-01-19T21:21:20.909Z,96407.78
2023-01-19T21:24:00.000Z,96400.84
2023-01-19T21:26:26.908Z,96410.06
2023-01-19T21:28:53.890Z,96418.34
2023-01-19T21:31:22.757Z,96395.19
2023-01-19T21:33:53.601Z,96395.06
2023-01-19T21:36:21.398Z,96399.19
2023-01-19T21:38:48.481Z,96401.44
2023-01-19T21:41:16.527Z,96391.94
2023-01-19T21:43:43.615Z,96386.31
2023-01-19T21:46:17.651Z,96385.84
2023-01-19T21:48:46.033Z,96370.75
2023-01-19T21:51:13.691Z,96369.28
2023-01-19T21:53:43.407Z,96378.44
2023-01-19T21:56:11.347Z,96380.34
2023-01-19T21:58:38.503Z,96377.03
2023-01-19T22:01:09.832Z,96367.81
2023-01-19T22:03:36.967Z,96347.78
2023-01-19T22:06:08.796Z,96362.00
2023-01-19T22:08:35.935Z,96361.56
2023-01-19T22:11:07.750Z,96357.34
2023-01-19T22:13:36.401Z,96372.84
2023-01-19T22:16:08.180Z,96358.78
2023-01-19T22:18:36.122Z,96345.31
2023-01-19T22:21:20.374Z,96347.28
2023-01-19T22:23:52.170Z,96341.38
2023-01-19T22:26:19.137Z,96359.88
2023-01-19T22:28:46.667Z,96355.59
2023-01-19T22:31:18.544Z,96350.66
2023-01-19T22:33:45.768Z,96328.13
2023-01-19T22:36:16.839Z,96330.75
2023-01-19T22:38:44.816Z,96356.31
2023-01-19T22:41:15.574Z,96351.69
2023-01-19T22:43:42.743Z,96339.34
2023-01-19T22:46:09.910Z,96340.66
2023-01-19T22:48:36.734Z,96337.91
2023-01-19T22:51:03.816Z,96304.59
2023-01-19T22:53:31.309Z,96310.53
2023-01-19T22:55:58.161Z,96310.88
2023-01-19T22:58:25.216Z,96306.13
2023-01-19T23:00:52.139Z,96290.44
2023-01-19T23:03:18.919Z,96286.97
2023-01-19T23:05:45.678Z,96284.03
2023-01-19T23:08:15.002Z,96276.97
2023-01-19T23:10:41.955Z,96276.28
2023-01-19T23:13:11.577Z,96265.09
2023-01-19T23:15:38.302Z,96257.84
2023-01-19T23:18:05.319Z,96256.53
2023-01-19T23:20:32.019Z,96259.53
2023-01-19T23:22:58.661Z,96271.22
2023-01-19T23:25:25.368Z,96246.06
2023-01-19T23:27:52.110Z,96240.47
2023-01-19T23:30:19.506Z,96238.84
2023-01-19T23:32:49.984Z,96232.59
2023-01-19T23:35:16.970Z,96227.97
2023-01-19T23:37:44.035Z,96207.53
2023-01-19T23:40:11.513Z,96195.53
2023-01-19T23:42:38.500Z,96197.22
2023-01-19T23:45:06.805Z,96202.00
2023-01-19T23:47:35.802Z,96202.88
2023-01-19T23:50:06.376Z,96160.84
2023-01-19T23:52:36.253Z,96157.47
2023-01-19T23:55:03.234Z,96157.59
2023-01-19T23:57:34.768Z,96166.28
